createdAt,value
2018-03-27T00:00:54.696Z,9.90
2018-03-27T00:04:42.810Z,9.10
2018-03-27T00:11:47.301Z,10.10
2018-03-27T00:13:26.574Z,9.80
2018-03-27T00:15:03.987Z,9.80
2018-03-27T00:16:41.525Z,9.60
2018-03-27T00:18:19.890Z,9.60
2018-03-27T00:19:57.998Z,9.50
2018-03-27T00:21:35.723Z,9.40
2018-03-27T00:23:14.086Z,9.00
2018-03-27T00:24:51.770Z,8.90
2018-03-27T00:26:30.623Z,9.00
2018-03-27T00:30:31.238Z,9.20
2018-03-27T00:32:33.191Z,9.20
2018-03-27T00:34:38.260Z,9.00
2018-03-27T00:36:41.487Z,9.00
2018-03-27T00:40:44.841Z,8.50
2018-03-27T00:42:23.465Z,8.90
2018-03-27T00:44:00.708Z,8.90
2018-03-27T00:54:10.867Z,8.60
2018-03-27T00:59:40.753Z,8.00
2018-03-27T01:05:15.764Z,8.00
2018-03-27T01:06:53.862Z,8.70
2018-03-27T01:08:31.619Z,9.00
2018-03-27T01:10:09.537Z,8.40
2018-03-27T01:11:47.283Z,7.60
2018-03-27T01:13:27.527Z,7.10
2018-03-27T01:15:05.724Z,7.00
2018-03-27T01:16:43.758Z,7.10
2018-03-27T01:18:21.467Z,7.10
2018-03-27T01:20:00.742Z,6.90
2018-03-27T01:21:39.317Z,6.80
2018-03-27T01:23:18.400Z,6.80
2018-03-27T01:29:15.042Z,6.20
2018-03-27T01:30:53.611Z,6.20
2018-03-27T01:32:31.817Z,6.20
2018-03-27T01:34:09.675Z,6.30
2018-03-27T01:35:47.948Z,6.50
2018-03-27T01:37:26.543Z,6.70
2018-03-27T01:39:04.761Z,6.90
2018-03-27T01:40:42.804Z,6.90
2018-03-27T01:42:20.938Z,7.00
2018-03-27T01:43:59.303Z,7.00
2018-03-27T01:45:37.511Z,7.10
2018-03-27T01:47:15.639Z,7.30
2018-03-27T01:48:53.910Z,7.70
2018-03-27T01:55:46.029Z,7.60
2018-03-27T01:57:24.336Z,7.90
2018-03-27T01:59:02.697Z,8.30
2018-03-27T02:00:40.419Z,8.40
2018-03-27T02:02:18.154Z,8.40
2018-03-27T02:03:55.725Z,8.10
2018-03-27T02:05:33.653Z,8.10
2018-03-27T02:07:11.587Z,8.30
2018-03-27T02:08:49.239Z,8.30
2018-03-27T02:10:28.030Z,8.40
2018-03-27T02:12:10.915Z,8.30
2018-03-27T02:13:53.888Z,8.20
2018-03-27T02:15:36.650Z,8.00
2018-03-27T02:17:19.145Z,7.90
2018-03-27T02:19:01.239Z,7.90
2018-03-27T02:20:43.639Z,8.00
2018-03-27T02:22:22.333Z,8.10
2018-03-27T02:24:00.046Z,8.20
2018-03-27T02:25:38.462Z,7.80
2018-03-27T02:27:16.813Z,7.10
2018-03-27T02:28:54.956Z,7.00
2018-03-27T02:30:33.064Z,6.50
2018-03-27T02:32:10.423Z,6.20
2018-03-27T02:35:36.558Z,5.90
2018-03-27T02:37:14.272Z,5.80
2018-03-27T02:38:51.682Z,5.60
2018-03-27T02:40:29.971Z,5.30
2018-03-27T02:42:08.701Z,5.20
2018-03-27T02:43:46.058Z,5.10
2018-03-27T02:45:25.337Z,5.10
2018-03-27T02:47:03.088Z,5.10
2018-03-27T02:48:40.639Z,5.10
2018-03-27T02:50:18.356Z,5.20
2018-03-27T02:51:56.149Z,5.30
2018-03-27T02:53:33.880Z,5.40
2018-03-27T02:55:11.567Z,5.70
2018-03-27T02:56:49.098Z,5.70
2018-03-27T02:58:27.608Z,5.80
2018-03-27T03:00:07.605Z,6.00
2018-03-27T03:01:47.445Z,5.90
2018-03-27T03:03:34.706Z,5.90
2018-03-27T03:05:14.265Z,6.00
2018-03-27T03:06:51.516Z,5.80
2018-03-27T03:08:29.394Z,5.60
2018-03-27T03:10:07.052Z,5.60
2018-03-27T03:11:44.336Z,5.60
2018-03-27T03:13:21.703Z,5.50
2018-03-27T03:15:01.160Z,5.50
2018-03-27T03:16:38.874Z,5.50
2018-03-27T03:18:16.398Z,5.60
2018-03-27T03:19:53.973Z,5.90
2018-03-27T03:21:32.468Z,6.10
2018-03-27T03:23:09.501Z,6.00
2018-03-27T03:24:46.699Z,6.00
2018-03-27T03:26:28.251Z,5.20
2018-03-27T03:32:29.521Z,5.10
2018-03-27T03:34:06.724Z,5.20
2018-03-27T03:35:43.804Z,5.20
2018-03-27T03:37:21.739Z,5.40
2018-03-27T03:38:59.676Z,5.80
2018-03-27T03:40:37.580Z,5.70
2018-03-27T03:42:15.037Z,5.80
2018-03-27T03:43:52.940Z,5.40
2018-03-27T03:45:30.375Z,5.40
2018-03-27T03:47:08.564Z,5.50
2018-03-27T03:48:45.946Z,5.50
2018-03-27T03:50:22.942Z,5.70
2018-03-27T03:52:00.106Z,5.80
2018-03-27T03:53:37.970Z,6.00
2018-03-27T03:55:15.201Z,6.10
2018-03-27T03:56:52.891Z,6.20
2018-03-27T03:58:29.982Z,6.20
2018-03-27T04:00:08.128Z,6.30
2018-03-27T04:01:45.579Z,6.30
2018-03-27T04:18:01.517Z,7.00
2018-03-27T04:19:38.609Z,6.70
2018-03-27T04:21:15.726Z,6.20
2018-03-27T04:22:52.758Z,5.70
2018-03-27T04:24:30.131Z,5.30
2018-03-27T04:26:07.502Z,4.80
2018-03-27T04:27:45.552Z,4.40
2018-03-27T04:29:23.458Z,4.30
2018-03-27T04:31:01.803Z,4.40
2018-03-27T04:32:40.166Z,4.70
2018-03-27T04:34:17.775Z,4.70
2018-03-27T04:35:56.602Z,5.00
2018-03-27T04:37:34.931Z,5.00
2018-03-27T04:39:12.330Z,5.10
2018-03-27T04:40:50.648Z,4.70
2018-03-27T04:42:28.083Z,4.70
2018-03-27T04:44:05.660Z,4.60
2018-03-27T04:45:43.395Z,4.50
2018-03-27T04:50:53.792Z,4.00
2018-03-27T04:52:31.464Z,3.90
2018-03-27T04:54:08.638Z,3.90
2018-03-27T04:55:46.906Z,4.10
2018-03-27T04:57:24.735Z,4.10
2018-03-27T04:59:02.279Z,3.90
2018-03-27T05:00:39.975Z,3.70
2018-03-27T05:02:17.708Z,3.60
2018-03-27T05:03:55.810Z,3.60
2018-03-27T05:05:33.482Z,3.60
2018-03-27T05:07:11.031Z,3.70
2018-03-27T05:08:48.226Z,3.70
2018-03-27T05:10:25.908Z,3.60
2018-03-27T05:12:03.230Z,3.50
2018-03-27T05:13:41.718Z,3.50
2018-03-27T05:15:20.243Z,3.50
2018-03-27T05:16:58.237Z,3.50
2018-03-27T05:18:35.811Z,3.60
2018-03-27T05:25:55.945Z,3.80
2018-03-27T05:27:34.351Z,3.90
2018-03-27T05:29:11.717Z,3.90
2018-03-27T05:30:50.526Z,3.90
2018-03-27T05:32:28.947Z,3.90
2018-03-27T05:34:07.103Z,3.90
2018-03-27T05:35:45.570Z,3.80
2018-03-27T05:37:23.270Z,3.80
2018-03-27T05:39:00.552Z,3.80
2018-03-27T05:40:38.528Z,3.70
2018-03-27T05:42:16.177Z,3.60
2018-03-27T05:43:53.399Z,3.70
2018-03-27T05:45:31.038Z,3.70
2018-03-27T05:47:09.157Z,3.70
2018-03-27T05:48:47.703Z,3.80
2018-03-27T05:50:25.669Z,3.70
2018-03-27T05:52:03.140Z,3.80
2018-03-27T05:53:41.334Z,3.70
2018-03-27T05:55:19.189Z,3.70
2018-03-27T05:56:56.798Z,3.60
2018-03-27T05:58:34.430Z,3.70
2018-03-27T06:00:14.828Z,3.70
2018-03-27T06:01:52.799Z,3.70
2018-03-27T06:03:30.408Z,3.90
2018-03-27T06:05:08.779Z,4.00
2018-03-27T06:12:08.976Z,4.50
2018-03-27T06:13:47.418Z,4.60
2018-03-27T06:15:26.373Z,4.60
2018-03-27T06:17:04.193Z,4.60
2018-03-27T06:18:42.348Z,4.70
2018-03-27T06:20:20.296Z,4.80
2018-03-27T06:21:58.407Z,4.90
2018-03-27T06:23:36.917Z,4.80
2018-03-27T06:25:14.702Z,4.80
2018-03-27T06:26:53.985Z,5.00
2018-03-27T06:28:31.450Z,4.90
2018-03-27T06:30:09.566Z,5.10
2018-03-27T06:31:48.024Z,5.00
2018-03-27T06:33:25.570Z,5.20
2018-03-27T06:35:03.501Z,5.20
2018-03-27T06:36:41.573Z,5.10
2018-03-27T06:38:20.435Z,5.60
2018-03-27T06:39:57.761Z,5.50
2018-03-27T06:41:35.408Z,5.50
2018-03-27T06:43:12.866Z,5.70
2018-03-27T06:44:50.895Z,5.90
2018-03-27T06:46:29.993Z,6.00
2018-03-27T06:48:07.920Z,6.10
2018-03-27T06:49:45.848Z,6.00
2018-03-27T06:51:24.015Z,6.10
2018-03-27T06:53:01.877Z,6.20
2018-03-27T06:54:40.226Z,6.30
2018-03-27T06:56:17.825Z,6.30
2018-03-27T07:01:30.871Z,6.40
2018-03-27T07:03:09.733Z,6.20
2018-03-27T07:04:47.190Z,6.20
2018-03-27T07:06:24.966Z,6.40
2018-03-27T07:08:02.628Z,6.60
2018-03-27T07:09:40.677Z,6.60
2018-03-27T07:11:20.503Z,6.70
2018-03-27T07:12:58.841Z,6.80
2018-03-27T07:14:36.687Z,6.80
2018-03-27T07:16:14.679Z,6.90
2018-03-27T07:17:52.181Z,6.60
2018-03-27T07:19:30.405Z,6.70
2018-03-27T07:21:07.971Z,6.70
2018-03-27T07:22:46.429Z,6.90
2018-03-27T07:24:24.043Z,6.90
2018-03-27T07:26:01.566Z,7.00
2018-03-27T07:27:39.643Z,7.10
2018-03-27T07:29:17.427Z,7.00
2018-03-27T07:30:56.323Z,7.00
2018-03-27T07:32:33.892Z,7.00
2018-03-27T07:34:12.569Z,7.20
2018-03-27T07:35:49.823Z,7.20
2018-03-27T07:37:27.214Z,7.10
2018-03-27T07:39:04.747Z,7.00
2018-03-27T07:40:42.192Z,6.90
2018-03-27T07:49:26.756Z,6.90
2018-03-27T07:51:04.551Z,7.10
2018-03-27T07:52:41.868Z,7.20
2018-03-27T07:54:20.019Z,7.10
2018-03-27T07:55:57.616Z,7.20
2018-03-27T07:57:35.366Z,7.00
2018-03-27T07:59:12.521Z,6.90
2018-03-27T08:00:50.203Z,6.80
2018-03-27T08:02:27.399Z,6.80
2018-03-27T08:04:05.164Z,7.10
2018-03-27T08:05:42.551Z,7.20
2018-03-27T08:07:19.825Z,7.50
2018-03-27T08:08:57.273Z,7.80
2018-03-27T08:10:34.757Z,7.80
2018-03-27T08:12:12.679Z,7.70
2018-03-27T08:13:50.752Z,7.70
2018-03-27T08:15:29.548Z,7.60
2018-03-27T08:17:07.199Z,7.40
2018-03-27T08:18:44.124Z,7.40
2018-03-27T08:20:21.297Z,7.50
2018-03-27T08:21:59.359Z,7.50
2018-03-27T08:23:37.932Z,7.60
2018-03-27T08:25:15.071Z,7.60
2018-03-27T08:26:52.278Z,7.70
2018-03-27T08:28:29.396Z,7.70
2018-03-27T08:30:07.718Z,7.50
2018-03-27T08:31:45.000Z,7.50
2018-03-27T08:33:22.297Z,7.70
2018-03-27T08:34:59.469Z,7.50
2018-03-27T08:36:36.617Z,7.60
2018-03-27T08:38:13.809Z,7.50
2018-03-27T08:39:51.058Z,7.60
2018-03-27T08:41:31.602Z,7.60
2018-03-27T08:43:09.570Z,7.90
2018-03-27T08:44:47.591Z,7.90
2018-03-27T08:46:26.666Z,8.20
2018-03-27T08:48:05.204Z,8.30
2018-03-27T08:59:45.925Z,8.20
2018-03-27T09:01:24.660Z,8.20
2018-03-27T09:03:02.354Z,8.40
2018-03-27T09:04:39.823Z,8.40
2018-03-27T09:06:17.004Z,8.50
2018-03-27T09:07:55.694Z,8.70
2018-03-27T09:09:32.724Z,8.70
2018-03-27T09:11:10.130Z,8.90
2018-03-27T09:12:47.173Z,9.30
2018-03-27T09:14:24.692Z,9.60
2018-03-27T09:16:02.164Z,9.50
2018-03-27T09:17:39.409Z,9.70
2018-03-27T09:19:17.206Z,10.60
2018-03-27T09:20:55.230Z,10.50
2018-03-27T09:22:32.462Z,10.30
2018-03-27T09:24:09.532Z,9.90
2018-03-27T09:25:47.572Z,10.00
2018-03-27T09:27:25.346Z,9.90
2018-03-27T09:29:02.391Z,10.00
2018-03-27T09:34:13.363Z,9.50
2018-03-27T09:35:50.562Z,9.20
2018-03-27T09:37:27.936Z,9.20
2018-03-27T09:39:05.287Z,9.10
2018-03-27T09:40:42.743Z,9.20
2018-03-27T09:42:19.810Z,9.50
2018-03-27T09:43:58.124Z,9.90
2018-03-27T09:45:35.919Z,10.30
2018-03-27T09:47:12.924Z,10.70
2018-03-27T09:48:50.082Z,11.20
2018-03-27T09:50:27.048Z,11.50
2018-03-27T09:52:04.764Z,11.60
2018-03-27T09:53:43.027Z,10.70
2018-03-27T09:55:20.121Z,10.70
2018-03-27T09:56:58.944Z,10.00
2018-03-27T09:58:36.002Z,9.70
2018-03-27T10:00:33.056Z,9.30
2018-03-27T10:08:35.450Z,9.20
2018-03-27T10:10:13.701Z,9.30
2018-03-27T10:11:51.158Z,9.20
2018-03-27T10:13:28.105Z,9.30
2018-03-27T10:15:07.873Z,9.40
2018-03-27T10:16:45.805Z,9.30
2018-03-27T10:18:26.664Z,9.40
2018-03-27T10:20:04.869Z,9.50
2018-03-27T10:21:42.668Z,9.60
2018-03-27T10:23:19.628Z,9.60
2018-03-27T10:24:57.148Z,9.50
2018-03-27T10:33:45.252Z,10.10
2018-03-27T10:41:19.957Z,10.20
2018-03-27T10:43:00.572Z,10.30
2018-03-27T10:44:38.876Z,10.40
2018-03-27T10:46:17.700Z,10.40
2018-03-27T10:49:02.766Z,10.40
2018-03-27T10:53:16.973Z,10.10
2018-03-27T10:57:01.950Z,10.20
2018-03-27T10:58:42.696Z,10.30
2018-03-27T11:02:17.421Z,10.60
2018-03-27T11:03:55.146Z,10.90
2018-03-27T11:05:32.364Z,11.00
2018-03-27T11:07:12.622Z,10.90
2018-03-27T11:08:53.064Z,10.60
2018-03-27T11:10:34.882Z,10.40
2018-03-27T11:13:59.451Z,10.40
2018-03-27T11:15:36.685Z,10.50
2018-03-27T11:17:16.423Z,10.30
2018-03-27T11:18:54.523Z,10.30
2018-03-27T11:20:33.842Z,10.50
2018-03-27T11:22:12.750Z,10.40
2018-03-27T11:23:51.586Z,10.20
2018-03-27T11:25:28.891Z,10.20
2018-03-27T11:27:07.296Z,10.10
2018-03-27T11:28:44.298Z,9.80
2018-03-27T11:30:22.419Z,10.00
2018-03-27T11:32:00.941Z,10.10
2018-03-27T11:33:38.245Z,10.30
2018-03-27T11:35:15.528Z,10.40
2018-03-27T11:36:53.513Z,10.80
2018-03-27T11:38:32.395Z,11.30
2018-03-27T11:40:09.576Z,11.20
2018-03-27T11:41:47.601Z,10.80
2018-03-27T11:43:24.452Z,11.00
2018-03-27T11:45:01.611Z,10.80
2018-03-27T11:46:39.261Z,10.90
2018-03-27T11:48:16.786Z,11.40
2018-03-27T11:49:54.443Z,11.60
2018-03-27T11:51:33.808Z,11.70
2018-03-27T11:53:11.765Z,11.70
2018-03-27T11:54:52.269Z,11.30
2018-03-27T11:56:29.877Z,11.20
2018-03-27T11:58:07.889Z,11.20
2018-03-27T11:59:45.105Z,11.20
2018-03-27T12:01:25.119Z,11.20
2018-03-27T12:07:54.552Z,12.30
2018-03-27T12:09:32.037Z,12.30
2018-03-27T12:11:09.464Z,12.70
2018-03-27T12:12:47.308Z,11.70
2018-03-27T12:14:24.979Z,11.50
2018-03-27T12:16:02.824Z,11.30
2018-03-27T12:25:45.256Z,11.10
2018-03-27T12:27:23.601Z,11.10
2018-03-27T12:29:01.880Z,11.10
2018-03-27T12:30:44.123Z,11.10
2018-03-27T12:32:21.710Z,11.30
2018-03-27T12:33:59.296Z,11.20
2018-03-27T12:35:37.777Z,11.20
2018-03-27T12:37:14.643Z,11.10
2018-03-27T12:44:23.698Z,11.90
2018-03-27T12:47:52.266Z,13.10
2018-03-27T12:49:29.468Z,13.10
2018-03-27T12:51:08.954Z,12.80
2018-03-27T12:52:46.361Z,12.50
2018-03-27T12:54:34.732Z,12.30
2018-03-27T12:56:16.292Z,12.40
2018-03-27T12:57:53.746Z,12.60
2018-03-27T12:59:30.741Z,13.10
2018-03-27T13:01:08.405Z,13.60
2018-03-27T13:02:54.175Z,13.80
2018-03-27T13:04:33.605Z,12.90
2018-03-27T13:06:11.977Z,13.00
2018-03-27T13:07:49.535Z,13.40
2018-03-27T13:11:12.045Z,13.20
2018-03-27T13:12:50.540Z,13.30
2018-03-27T13:14:33.158Z,14.00
2018-03-27T13:16:16.013Z,14.10
2018-03-27T13:18:03.383Z,14.30
2018-03-27T13:19:48.608Z,14.30
2018-03-27T13:21:28.455Z,14.40
2018-03-27T13:23:07.006Z,14.30
2018-03-27T13:24:45.098Z,14.30
2018-03-27T13:26:23.753Z,14.50
2018-03-27T13:28:01.578Z,14.60
2018-03-27T13:29:38.985Z,14.50
2018-03-27T13:31:18.561Z,14.40
2018-03-27T13:32:57.323Z,13.70
2018-03-27T13:40:12.222Z,13.70
2018-03-27T13:41:49.564Z,13.70
2018-03-27T13:43:29.026Z,13.50
2018-03-27T13:45:07.870Z,13.70
2018-03-27T13:46:45.518Z,13.80
2018-03-27T13:48:22.746Z,13.60
2018-03-27T13:50:00.565Z,13.80
2018-03-27T13:51:42.458Z,13.70
2018-03-27T13:53:19.755Z,13.70
2018-03-27T13:54:57.246Z,13.40
2018-03-27T13:56:34.631Z,13.50
2018-03-27T13:58:13.091Z,13.40
2018-03-27T13:59:50.772Z,13.40
2018-03-27T14:01:28.449Z,12.90
2018-03-27T14:03:05.960Z,12.70
2018-03-27T14:04:43.763Z,12.50
2018-03-27T14:06:23.473Z,12.30
2018-03-27T14:08:00.552Z,12.60
2018-03-27T14:09:38.287Z,12.30
2018-03-27T14:13:17.249Z,12.60
2018-03-27T14:14:54.404Z,13.10
2018-03-27T14:16:32.388Z,12.70
2018-03-27T14:18:09.789Z,12.60
2018-03-27T14:19:47.160Z,12.90
2018-03-27T14:21:24.522Z,13.10
2018-03-27T14:24:38.464Z,13.60
2018-03-27T14:26:15.638Z,13.50
2018-03-27T14:27:53.796Z,13.70
2018-03-27T14:29:31.818Z,13.70
2018-03-27T14:31:10.336Z,13.80
2018-03-27T14:32:47.459Z,13.80
2018-03-27T14:34:24.634Z,13.70
2018-03-27T14:36:02.841Z,13.70
2018-03-27T14:39:12.592Z,13.80
2018-03-27T14:40:51.002Z,13.80
2018-03-27T14:42:29.562Z,13.50
2018-03-27T14:44:07.203Z,13.70
2018-03-27T14:45:45.695Z,14.00
2018-03-27T14:47:23.675Z,13.90
2018-03-27T14:49:01.195Z,13.90
2018-03-27T14:50:39.268Z,14.00
2018-03-27T14:52:17.062Z,14.10
2018-03-27T14:53:54.392Z,14.10
2018-03-27T14:55:33.148Z,13.60
2018-03-27T14:57:10.555Z,13.60
2018-03-27T14:58:48.102Z,13.60
2018-03-27T15:02:11.911Z,13.70
2018-03-27T15:03:49.537Z,13.60
2018-03-27T15:05:26.875Z,13.60
2018-03-27T15:07:04.910Z,13.30
2018-03-27T15:08:42.032Z,13.30
2018-03-27T15:10:19.305Z,13.10
2018-03-27T15:11:56.829Z,12.80
2018-03-27T15:13:33.951Z,12.60
2018-03-27T15:15:11.770Z,12.90
2018-03-27T15:16:49.090Z,13.20
2018-03-27T15:18:27.270Z,13.20
2018-03-27T15:20:04.556Z,13.20
2018-03-27T15:21:44.960Z,12.50
2018-03-27T15:23:22.140Z,12.80
2018-03-27T15:24:59.311Z,12.90
2018-03-27T15:26:36.291Z,12.80
2018-03-27T15:28:13.439Z,12.70
2018-03-27T15:29:50.513Z,12.50
2018-03-27T15:31:27.820Z,12.30
2018-03-27T15:33:04.742Z,12.30
2018-03-27T15:34:42.149Z,12.30
2018-03-27T15:36:21.434Z,12.30
2018-03-27T15:39:30.683Z,12.20
2018-03-27T15:41:08.016Z,12.10
2018-03-27T15:42:44.999Z,12.10
2018-03-27T15:44:22.014Z,12.10
2018-03-27T15:45:59.267Z,12.10
2018-03-27T15:47:36.840Z,12.10
2018-03-27T15:49:14.776Z,12.10
2018-03-27T15:50:52.769Z,12.20
2018-03-27T15:52:30.756Z,12.20
2018-03-27T16:04:49.141Z,12.00
2018-03-27T16:06:32.726Z,12.00
2018-03-27T16:08:09.954Z,11.90
2018-03-27T16:09:47.791Z,11.80
2018-03-27T16:11:25.720Z,11.60
2018-03-27T16:14:39.412Z,11.40
2018-03-27T16:16:16.897Z,11.40
2018-03-27T16:17:54.479Z,11.40
2018-03-27T16:19:31.711Z,11.50
2018-03-27T16:21:10.800Z,11.30
2018-03-27T16:22:48.053Z,11.30
2018-03-27T16:24:26.793Z,11.30
2018-03-27T16:26:03.880Z,11.20
2018-03-27T16:27:40.862Z,11.20
2018-03-27T16:29:19.431Z,10.80
2018-03-27T16:32:45.642Z,10.90
2018-03-27T16:34:24.882Z,10.80
2018-03-27T16:36:02.103Z,10.80
2018-03-27T16:37:39.063Z,10.90
2018-03-27T16:39:16.295Z,11.00
2018-03-27T16:40:54.211Z,10.90
2018-03-27T16:42:32.542Z,11.00
2018-03-27T16:44:09.729Z,11.00
2018-03-27T16:45:47.123Z,11.00
2018-03-27T16:47:24.357Z,10.90
2018-03-27T16:49:02.535Z,10.90
2018-03-27T16:50:40.558Z,10.90
2018-03-27T16:52:19.289Z,10.80
2018-03-27T16:53:56.393Z,10.80
2018-03-27T16:55:35.569Z,10.70
2018-03-27T16:57:13.613Z,10.90
2018-03-27T16:58:50.867Z,10.90
2018-03-27T17:00:32.086Z,10.90
2018-03-27T17:02:10.199Z,10.80
2018-03-27T17:03:48.124Z,10.70
2018-03-27T17:10:49.098Z,10.30
2018-03-27T17:12:26.951Z,10.30
2018-03-27T17:14:04.409Z,10.20
2018-03-27T17:15:41.783Z,10.20
2018-03-27T17:17:19.804Z,9.90
2018-03-27T17:18:57.367Z,9.80
2018-03-27T17:20:35.144Z,10.30
2018-03-27T17:22:14.765Z,10.30
2018-03-27T17:23:51.930Z,10.50
2018-03-27T17:25:29.827Z,10.50
2018-03-27T17:27:07.215Z,10.60
2018-03-27T17:28:44.507Z,10.40
2018-03-27T17:30:22.089Z,10.30
2018-03-27T17:32:01.772Z,10.10
2018-03-27T17:33:39.860Z,10.00
2018-03-27T17:35:17.194Z,10.40
2018-03-27T17:36:54.560Z,10.50
2018-03-27T17:38:32.850Z,10.50
2018-03-27T17:40:11.946Z,10.70
2018-03-27T17:41:54.593Z,10.40
2018-03-27T17:43:35.389Z,10.30
2018-03-27T17:45:18.407Z,9.00
2018-03-27T17:46:58.552Z,9.00
2018-03-27T17:48:36.618Z,8.40
2018-03-27T17:50:13.962Z,8.30
2018-03-27T17:51:52.041Z,8.40
2018-03-27T17:53:31.689Z,8.20
2018-03-27T17:55:08.737Z,8.20
2018-03-27T17:56:45.802Z,8.00
2018-03-27T17:58:23.507Z,7.90
2018-03-27T18:00:00.846Z,7.90
2018-03-27T18:01:38.739Z,7.90
2018-03-27T18:03:15.696Z,7.90
2018-03-27T18:04:54.397Z,7.80
2018-03-27T18:06:32.845Z,7.90
2018-03-27T18:11:54.760Z,7.80
2018-03-27T18:13:35.933Z,7.80
2018-03-27T18:15:13.208Z,7.80
2018-03-27T18:16:53.095Z,7.90
2018-03-27T18:18:31.299Z,8.00
2018-03-27T18:20:08.364Z,8.00
2018-03-27T18:21:45.415Z,8.20
2018-03-27T18:23:22.945Z,8.00
2018-03-27T18:25:00.410Z,7.90
2018-03-27T18:26:38.180Z,7.80
2018-03-27T18:28:16.221Z,7.80
2018-03-27T18:29:53.753Z,7.80
2018-03-27T18:31:31.274Z,7.70
2018-03-27T18:33:08.668Z,7.60
2018-03-27T18:34:46.509Z,7.50
2018-03-27T18:36:23.983Z,7.50
2018-03-27T18:38:01.031Z,7.60
2018-03-27T18:39:39.347Z,7.50
2018-03-27T18:41:17.318Z,7.40
2018-03-27T18:42:55.209Z,7.30
2018-03-27T18:44:32.462Z,7.30
2018-03-27T18:46:09.772Z,7.30
2018-03-27T18:47:46.881Z,7.20
2018-03-27T18:53:25.096Z,7.30
2018-03-27T18:55:02.680Z,7.30
2018-03-27T18:56:39.818Z,7.30
2018-03-27T18:58:18.186Z,7.30
2018-03-27T18:59:55.283Z,7.20
2018-03-27T19:01:39.633Z,7.20
2018-03-27T19:03:17.251Z,7.30
2018-03-27T19:04:55.082Z,7.30
2018-03-27T19:06:32.352Z,7.30
2018-03-27T19:08:09.849Z,7.30
2018-03-27T19:09:47.016Z,7.30
2018-03-27T19:11:24.189Z,7.30
2018-03-27T19:13:01.313Z,7.20
2018-03-27T19:14:39.516Z,7.20
2018-03-27T19:16:16.766Z,7.20
2018-03-27T19:17:53.824Z,7.20
2018-03-27T19:19:30.885Z,7.30
2018-03-27T19:21:08.983Z,7.30
2018-03-27T19:22:45.965Z,7.30
2018-03-27T19:24:22.931Z,7.30
2018-03-27T19:26:00.041Z,7.30
2018-03-27T19:27:37.504Z,7.30
2018-03-27T19:29:14.622Z,7.30
2018-03-27T19:30:51.953Z,7.20
2018-03-27T19:32:28.946Z,7.20
2018-03-27T19:34:06.328Z,7.20
2018-03-27T19:35:43.477Z,7.20
2018-03-27T19:37:21.452Z,7.20
2018-03-27T19:38:58.705Z,7.20
2018-03-27T19:40:36.592Z,7.20
2018-03-27T19:42:13.757Z,7.60
2018-03-27T19:43:50.778Z,8.00
2018-03-27T19:45:29.904Z,8.40
2018-03-27T19:47:06.852Z,8.70
2018-03-27T19:48:43.795Z,8.90
2018-03-27T19:50:21.730Z,8.70
2018-03-27T19:51:59.571Z,8.70
2018-03-27T19:53:36.542Z,8.30
2018-03-27T19:55:14.302Z,8.00
2018-03-27T19:56:51.135Z,8.00
2018-03-27T19:58:28.540Z,8.00
2018-03-27T20:00:05.957Z,7.80
2018-03-27T20:01:43.328Z,7.70
2018-03-27T20:03:21.234Z,7.80
2018-03-27T20:04:58.895Z,7.90
2018-03-27T20:06:35.862Z,7.70
2018-03-27T20:08:14.825Z,8.00
2018-03-27T20:09:52.000Z,8.10
2018-03-27T20:11:29.794Z,7.80
2018-03-27T20:13:07.014Z,7.70
2018-03-27T20:14:44.416Z,7.70
2018-03-27T20:16:21.648Z,7.60
2018-03-27T20:17:59.923Z,7.50
2018-03-27T20:19:37.123Z,7.50
2018-03-27T20:21:14.532Z,7.60
2018-03-27T20:22:52.482Z,7.70
2018-03-27T20:24:29.927Z,7.70
2018-03-27T20:26:07.812Z,7.60
2018-03-27T20:27:45.667Z,7.60
2018-03-27T20:29:22.645Z,7.70
2018-03-27T20:36:40.368Z,7.90
2018-03-27T20:38:17.771Z,7.90
2018-03-27T20:39:55.658Z,7.80
2018-03-27T20:41:35.189Z,7.80
2018-03-27T20:43:13.613Z,7.80
2018-03-27T20:44:51.412Z,7.90
2018-03-27T20:46:28.493Z,7.90
2018-03-27T20:48:07.015Z,8.50
2018-03-27T20:49:46.640Z,8.50
2018-03-27T20:51:23.779Z,8.10
2018-03-27T20:53:09.851Z,7.60
2018-03-27T20:54:49.166Z,7.60
2018-03-27T20:56:26.376Z,7.80
2018-03-27T20:58:04.910Z,8.10
2018-03-27T20:59:43.556Z,8.50
2018-03-27T21:01:23.106Z,8.50
2018-03-27T21:03:01.149Z,8.90
2018-03-27T21:04:38.949Z,9.20
2018-03-27T21:06:16.990Z,9.50
2018-03-27T21:07:55.809Z,9.50
2018-03-27T21:09:37.665Z,9.40
2018-03-27T21:11:16.219Z,9.40
2018-03-27T21:12:55.425Z,9.40
2018-03-27T21:14:34.862Z,9.70
2018-03-27T21:19:48.993Z,9.40
2018-03-27T21:21:26.309Z,9.30
2018-03-27T21:23:03.579Z,9.70
2018-03-27T21:24:41.194Z,9.90
2018-03-27T21:26:18.266Z,9.90
2018-03-27T21:27:58.242Z,10.10
2018-03-27T21:29:35.761Z,10.10
2018-03-27T21:31:12.949Z,10.10
2018-03-27T21:32:51.336Z,10.10
2018-03-27T21:34:30.458Z,10.00
2018-03-27T21:36:07.855Z,9.70
2018-03-27T21:37:45.055Z,9.50
2018-03-27T21:39:24.613Z,9.40
2018-03-27T21:41:02.547Z,9.50
2018-03-27T21:42:40.942Z,9.50
2018-03-27T21:44:19.137Z,8.80
2018-03-27T21:45:57.616Z,8.80
2018-03-27T21:47:34.619Z,8.80
2018-03-27T21:49:12.551Z,8.90
2018-03-27T21:50:49.752Z,9.30
2018-03-27T21:52:27.174Z,9.60
2018-03-27T21:54:04.313Z,9.90
2018-03-27T21:55:41.398Z,10.10
2018-03-27T21:57:19.022Z,10.10
2018-03-27T21:58:57.310Z,9.80
2018-03-27T22:00:34.636Z,9.80
2018-03-27T22:02:11.770Z,9.70
2018-03-27T22:03:50.170Z,9.20
2018-03-27T22:05:27.681Z,9.20
2018-03-27T22:07:08.028Z,9.70
2018-03-27T22:08:45.235Z,9.70
2018-03-27T22:10:23.263Z,10.00
2018-03-27T22:12:01.934Z,10.00
2018-03-27T22:13:39.049Z,10.00
2018-03-27T22:15:18.626Z,10.10
2018-03-27T22:18:40.005Z,10.10
2018-03-27T22:20:17.180Z,10.10
2018-03-27T22:21:54.283Z,9.80
2018-03-27T22:23:31.395Z,9.30
2018-03-27T22:25:08.848Z,9.30
2018-03-27T22:26:46.153Z,9.30
2018-03-27T22:28:23.152Z,9.10
2018-03-27T22:30:00.334Z,8.90
2018-03-27T22:31:37.841Z,9.00
2018-03-27T22:33:15.044Z,9.10
2018-03-27T22:34:52.883Z,9.40
2018-03-27T22:36:30.054Z,9.60
2018-03-27T22:38:08.454Z,9.90
2018-03-27T22:39:46.557Z,9.90
2018-03-27T22:41:24.932Z,10.30
2018-03-27T22:43:02.184Z,10.30
2018-03-27T22:44:39.797Z,10.50
2018-03-27T22:46:17.276Z,10.70
2018-03-27T22:47:55.897Z,10.80
2018-03-27T22:49:34.904Z,10.70
2018-03-27T22:51:13.091Z,10.60
2018-03-27T22:52:50.125Z,10.20
2018-03-27T22:54:27.298Z,10.00
2018-03-27T22:56:04.446Z,9.90
2018-03-27T22:57:41.875Z,10.20
2018-03-27T22:59:19.006Z,10.60
2018-03-27T23:00:56.725Z,10.70
2018-03-27T23:02:33.722Z,10.90
2018-03-27T23:04:11.375Z,10.60
2018-03-27T23:05:51.277Z,10.10
2018-03-27T23:07:28.454Z,10.30
2018-03-27T23:09:06.295Z,10.30
2018-03-27T23:14:20.093Z,10.30
2018-03-27T23:15:57.978Z,10.40
2018-03-27T23:17:35.141Z,10.50
2018-03-27T23:19:12.387Z,10.20
2018-03-27T23:20:49.751Z,10.00
2018-03-27T23:22:32.911Z,9.60
2018-03-27T23:24:10.270Z,9.60
2018-03-27T23:25:47.550Z,9.20
2018-03-27T23:27:24.794Z,9.30
2018-03-27T23:29:02.812Z,9.40
2018-03-27T23:30:44.718Z,9.40
2018-03-27T23:32:23.100Z,9.40
2018-03-27T23:34:01.429Z,9.90
2018-03-27T23:35:39.358Z,10.50
2018-03-27T23:37:17.927Z,10.50
2018-03-27T23:38:55.440Z,10.80
2018-03-27T23:40:33.826Z,10.90
2018-03-27T23:42:12.060Z,11.20
2018-03-27T23:43:49.398Z,11.10
2018-03-27T23:45:30.375Z,11.20
2018-03-27T23:47:08.293Z,11.30
2018-03-27T23:48:45.566Z,11.20
2018-03-27T23:50:23.270Z,11.60
2018-03-27T23:52:00.621Z,11.80
2018-03-27T23:53:38.729Z,11.80
2018-03-27T23:55:17.289Z,11.50
2018-03-27T23:56:55.044Z,11.40
2018-03-27T23:58:33.281Z,10.90
